Waco, Mississippi
Current Conditions -  °F | °C
As of 5:53 PM on Friday 28 Nov 2014 (Local Time) from KGLH Reporting Station
Clear Clear  
Wind Chill: 43°   Ceiling: Unl
Heat Index: 47°   Visibility: 10mi
Dew Point: 32°   Wind: 9mph
Humidity: 56%   Direction: 180°S
Pressure: 30.18"   Gusts: NA
Location:  33.345°N, 90.6029°W
Report Text: KGLH 282353Z AUTO 18008KT 10SM CLR 08/00 A3018 RMK AO2 SLP229 T00830000 10150 20078 56009
Loading
Personal Weather Stations






























Interactive Weather Map New forecast layout! Learn more

10-Day Weather Forecast

Advertisements
Track Severe Weather on mobile